Time,TemperatureF,DewpointF,PressureIn,WindDirection,WindDirectionDegrees,WindSpeedMPH,WindSpeedGustMPH,Humidity,HourlyPrecipIn,Conditions,Clouds,dailyrainin,SoftwareType,DateUTC
2013-11-03 00:00:00,30.2,21.3,30.13,North,10,0.0,0.0,69,0.00,,---,0.00,VWS V13.01,2013-11-03 05:00:00,
2013-11-03 00:05:00,30.9,22.0,30.13,North,10,0.0,0.0,69,0.00,,---,0.00,VWS V13.01,2013-11-03 05:05:00,
2013-11-03 00:11:00,31.1,22.1,30.13,North,10,0.0,0.0,69,0.00,,---,0.00,VWS V13.01,2013-11-03 05:11:00,
2013-11-03 00:16:00,31.1,22.1,30.13,North,10,0.0,0.0,69,0.00,,---,0.00,VWS V13.01,2013-11-03 05:16:00,
2013-11-03 00:21:00,31.3,22.3,30.13,North,10,0.0,0.0,69,0.00,,---,0.00,VWS V13.01,2013-11-03 05:21:00,
2013-11-03 00:26:00,31.6,23.0,30.13,North,10,0.0,0.0,70,0.00,,---,0.00,VWS V13.01,2013-11-03 05:26:00,
2013-11-03 00:31:00,31.8,23.2,30.13,North,10,0.0,0.0,70,0.00,,---,0.00,VWS V13.01,2013-11-03 05:31:00,
2013-11-03 00:36:00,31.8,23.2,30.13,North,10,0.0,0.0,70,0.00,,---,0.00,VWS V13.01,2013-11-03 05:36:00,
2013-11-03 00:41:00,31.8,22.8,30.13,North,10,0.0,0.0,69,0.00,,---,0.00,VWS V13.01,2013-11-03 05:41:00,
2013-11-03 00:46:00,31.6,22.6,30.13,North,10,0.0,0.0,69,0.00,,---,0.00,VWS V13.01,2013-11-03 05:46:00,
2013-11-03 00:51:00,31.5,22.5,30.13,North,10,0.0,0.0,69,0.00,,---,0.00,VWS V13.01,2013-11-03 05:51:00,
2013-11-03 00:56:00,31.6,22.6,30.13,North,10,0.0,0.0,69,0.00,,---,0.00,VWS V13.01,2013-11-03 05:56:00,
2013-11-03 01:00:00,31.6,23.3,30.16,North,10,0.0,0.0,71,0.00,,---,0.00,VWS V13.01,2013-11-03 06:00:00,
2013-11-03 01:01:00,31.5,22.5,30.13,North,10,0.0,0.0,69,0.00,,---,0.00,VWS V13.01,2013-11-03 06:01:00,
2013-11-03 01:02:00,31.6,23.3,30.16,North,10,0.0,0.0,71,0.00,,---,0.00,VWS V13.01,2013-11-03 06:02:00,
2013-11-03 01:03:00,31.6,23.3,30.16,North,10,0.0,0.0,71,0.00,,---,0.00,VWS V13.01,2013-11-03 06:03:00,
2013-11-03 01:04:00,31.6,23.3,30.16,North,10,0.0,0.0,71,0.00,,---,0.00,VWS V13.01,2013-11-03 06:04:00,
2013-11-03 01:05:00,31.6,23.3,30.16,North,10,0.0,0.0,71,0.00,,---,0.00,VWS V13.01,2013-11-03 06:05:00,
2013-11-03 01:06:00,31.3,22.3,30.13,North,10,0.0,0.0,69,0.00,,---,0.00,VWS V13.01,2013-11-03 06:06:00,
2013-11-03 01:07:00,31.6,23.3,30.16,North,10,0.0,0.0,71,0.00,,---,0.00,VWS V13.01,2013-11-03 06:07:00,
2013-11-03 01:08:00,31.6,23.3,30.16,North,10,0.0,0.0,71,0.00,,---,0.00,VWS V13.01,2013-11-03 06:08:00,
2013-11-03 01:09:00,31.6,23.3,30.16,North,10,0.0,0.0,71,0.00,,---,0.00,VWS V13.01,2013-11-03 06:09:00,
2013-11-03 01:10:00,31.6,23.3,30.16,North,10,0.0,0.0,71,0.00,,---,0.00,VWS V13.01,2013-11-03 06:10:00,
2013-11-03 01:11:00,31.1,22.1,30.13,North,10,0.0,0.0,69,0.00,,---,0.00,VWS V13.01,2013-11-03 06:11:00,
2013-11-03 01:12:00,31.5,23.2,30.16,North,10,0.0,0.0,71,0.00,,---,0.00,VWS V13.01,2013-11-03 06:12:00,
2013-11-03 01:13:00,31.5,23.2,30.16,North,10,0.0,0.0,71,0.00,,---,0.00,VWS V13.01,2013-11-03 06:13:00,
2013-11-03 01:14:00,31.5,23.2,30.16,North,10,0.0,0.0,71,0.00,,---,0.00,VWS V13.01,2013-11-03 06:14:00,
2013-11-03 01:15:00,31.5,23.2,30.16,North,10,0.0,0.0,71,0.00,,---,0.00,VWS V13.01,2013-11-03 06:15:00,
2013-11-03 01:16:00,31.1,22.1,30.13,North,10,0.0,0.0,69,0.00,,---,0.00,VWS V13.01,2013-11-03 06:16:00,
2013-11-03 01:17:00,31.5,23.2,30.16,North,10,0.0,0.0,71,0.00,,---,0.00,VWS V13.01,2013-11-03 06:17:00,
2013-11-03 01:18:00,31.5,23.2,30.16,North,10,0.0,0.0,71,0.00,,---,0.00,VWS V13.01,2013-11-03 06:18:00,
2013-11-03 01:19:00,31.5,23.2,30.16,North,10,0.0,0.0,71,0.00,,---,0.00,VWS V13.01,2013-11-03 06:19:00,
2013-11-03 01:20:00,31.5,23.2,30.16,North,10,0.0,0.0,71,0.00,,---,0.00,VWS V13.01,2013-11-03 06:20:00,
2013-11-03 01:21:00,30.9,22.0,30.13,North,10,0.0,0.0,69,0.00,,---,0.00,VWS V13.01,2013-11-03 06:21:00,
2013-11-03 01:22:00,31.6,23.3,30.16,North,10,0.0,0.0,71,0.00,,---,0.00,VWS V13.01,2013-11-03 06:22:00,
2013-11-03 01:23:00,31.6,23.3,30.16,North,10,0.0,0.0,71,0.00,,---,0.00,VWS V13.01,2013-11-03 06:23:00,
2013-11-03 01:24:00,31.6,23.3,30.16,North,10,0.0,0.0,71,0.00,,---,0.00,VWS V13.01,2013-11-03 06:24:00,
2013-11-03 01:26:00,30.9,22.0,30.13,North,10,0.0,0.0,69,0.00,,---,0.00,VWS V13.01,2013-11-03 06:26:00,
2013-11-03 01:28:00,31.6,23.3,30.16,North,10,0.0,0.0,71,0.00,,---,0.00,VWS V13.01,2013-11-03 06:28:00,
2013-11-03 01:29:00,31.6,23.3,30.16,North,10,0.0,0.0,71,0.00,,---,0.00,VWS V13.01,2013-11-03 06:29:00,
2013-11-03 01:31:00,30.7,21.8,30.13,North,10,0.0,0.0,69,0.00,,---,0.00,VWS V13.01,2013-11-03 06:31:00,
2013-11-03 01:36:00,30.6,21.6,30.13,North,10,0.0,0.0,69,0.00,,---,0.00,VWS V13.01,2013-11-03 06:36:00,
2013-11-03 01:41:00,30.4,21.4,30.13,North,10,0.0,0.0,69,0.00,,---,0.00,VWS V13.01,2013-11-03 06:41:00,
2013-11-03 01:46:00,30.2,21.3,30.16,North,10,0.0,0.0,69,0.00,,---,0.00,VWS V13.01,2013-11-03 06:46:00,
2013-11-03 01:51:00,29.8,20.9,30.16,North,10,0.0,0.0,69,0.00,,---,0.00,VWS V13.01,2013-11-03 06:51:00,
2013-11-03 01:56:00,29.7,20.8,30.16,North,10,0.0,0.0,69,0.00,,---,0.00,VWS V13.01,2013-11-03 06:56:00,
2013-11-03 01:01:00,29.5,20.6,30.16,North,10,0.0,0.0,69,0.00,,---,0.00,VWS V13.01,2013-11-03 07:01:00,
2013-11-03 01:06:00,29.5,20.6,30.16,North,10,0.0,0.0,69,0.00,,---,0.00,VWS V13.01,2013-11-03 07:06:00,
2013-11-03 01:11:00,29.5,20.9,30.16,North,10,0.0,0.0,70,0.00,,---,0.00,VWS V13.01,2013-11-03 07:11:00,
2013-11-03 01:16:00,29.8,21.3,30.16,North,10,0.0,0.0,70,0.00,,---,0.00,VWS V13.01,2013-11-03 07:16:00,
2013-11-03 01:21:00,30.2,21.6,30.16,North,10,0.0,0.0,70,0.00,,---,0.00,VWS V13.01,2013-11-03 07:21:00,
2013-11-03 01:26:00,30.6,22.3,30.16,North,10,0.0,0.0,71,0.00,,---,0.00,VWS V13.01,2013-11-03 07:26:00,
2013-11-03 01:30:00,31.6,23.3,30.16,North,10,0.0,0.0,71,0.00,,---,0.00,VWS V13.01,2013-11-03 07:30:00,
2013-11-03 01:31:00,30.9,22.6,30.16,North,10,0.0,0.0,71,0.00,,---,0.00,VWS V13.01,2013-11-03 07:31:00,
2013-11-03 01:36:00,31.1,22.8,30.16,North,10,0.0,0.0,71,0.00,,---,0.00,VWS V13.01,2013-11-03 07:36:00,
2013-11-03 01:41:00,31.3,23.0,30.16,North,10,0.0,0.0,71,0.00,,---,0.00,VWS V13.01,2013-11-03 07:41:00,
2013-11-03 01:46:00,31.5,23.2,30.16,North,10,0.0,0.0,71,0.00,,---,0.00,VWS V13.01,2013-11-03 07:46:00,
2013-11-03 01:51:00,31.5,23.2,30.16,North,10,0.0,0.0,71,0.00,,---,0.00,VWS V13.01,2013-11-03 07:51:00,
2013-11-03 01:56:00,31.5,23.2,30.16,North,10,0.0,0.0,71,0.00,,---,0.00,VWS V13.01,2013-11-03 07:56:00,
2013-11-03 02:20:00,31.5,23.2,30.16,North,10,0.0,0.0,71,0.00,,---,0.00,VWS V13.01,2013-11-03 08:20:00,
2013-11-03 02:25:00,31.6,23.3,30.16,North,10,0.0,0.0,71,0.00,,---,0.00,VWS V13.01,2013-11-03 08:25:00,
2013-11-03 02:31:00,31.6,23.3,30.16,North,10,0.0,0.0,71,0.00,,---,0.00,VWS V13.01,2013-11-03 08:31:00,
2013-11-03 02:36:00,31.6,23.0,30.16,North,10,0.0,0.0,70,0.00,,---,0.00,VWS V13.01,2013-11-03 08:36:00,
2013-11-03 02:41:00,31.8,23.2,30.16,North,10,0.0,0.0,70,0.00,,---,0.00,VWS V13.01,2013-11-03 08:41:00,
2013-11-03 02:46:00,31.6,23.0,30.16,North,10,0.0,0.0,70,0.00,,---,0.00,VWS V13.01,2013-11-03 08:46:00,
2013-11-03 02:51:00,31.8,23.2,30.16,North,10,0.0,0.0,70,0.00,,---,0.00,VWS V13.01,2013-11-03 08:51:00,
2013-11-03 02:56:00,32.0,23.3,30.16,North,10,0.0,0.0,70,0.00,,---,0.00,VWS V13.01,2013-11-03 08:56:00,
2013-11-03 03:01:00,32.0,23.0,30.16,North,10,0.0,0.0,69,0.00,,---,0.00,VWS V13.01,2013-11-03 09:01:00,
2013-11-03 03:06:00,32.2,23.2,30.16,North,10,0.0,0.0,69,0.00,,---,0.00,VWS V13.01,2013-11-03 09:06:00,
2013-11-03 03:11:00,32.2,22.8,30.16,North,10,0.0,0.0,68,0.00,,---,0.00,VWS V13.01,2013-11-03 09:11:00,
2013-11-03 03:16:00,32.2,22.5,30.16,North,10,0.0,0.0,67,0.00,,---,0.00,VWS V13.01,2013-11-03 09:16:00,
2013-11-03 03:21:00,32.4,21.9,30.16,North,10,0.0,0.0,65,0.00,,---,0.00,VWS V13.01,2013-11-03 09:21:00,
2013-11-03 03:26:00,32.2,21.0,30.16,North,10,3.1,4.0,63,0.00,,---,0.00,VWS V13.01,2013-11-03 09:26:00,
2013-11-03 03:31:00,32.0,20.1,30.19,North,10,3.6,3.6,61,0.00,,---,0.00,VWS V13.01,2013-11-03 09:31:00,
2013-11-03 03:36:00,32.0,19.7,30.19,North,10,3.6,4.0,60,0.00,,---,0.00,VWS V13.01,2013-11-03 09:36:00,
2013-11-03 03:41:00,32.0,19.3,30.19,North,10,3.1,3.6,59,0.00,,---,0.00,VWS V13.01,2013-11-03 09:41:00,
2013-11-03 03:46:00,32.0,18.9,30.19,North,10,2.7,3.6,58,0.00,,---,0.00,VWS V13.01,2013-11-03 09:46:00,
2013-11-03 03:52:00,32.2,18.7,30.19,North,10,4.5,4.5,57,0.00,,---,0.00,VWS V13.01,2013-11-03 09:52:00,
2013-11-03 03:56:00,32.4,18.8,30.19,North,10,3.1,3.6,57,0.00,,---,0.00,VWS V13.01,2013-11-03 09:56:00,
2013-11-03 04:02:00,32.5,18.6,30.19,North,10,0.0,0.0,56,0.00,,---,0.00,VWS V13.01,2013-11-03 10:02:00,
2013-11-03 04:07:00,32.4,18.4,30.19,North,10,0.0,0.0,56,0.00,,---,0.00,VWS V13.01,2013-11-03 10:07:00,
2013-11-03 04:12:00,32.4,18.0,30.19,North,10,2.7,2.7,55,0.00,,---,0.00,VWS V13.01,2013-11-03 10:12:00,
2013-11-03 04:17:00,32.4,18.0,30.16,North,10,2.7,3.6,55,0.00,,---,0.00,VWS V13.01,2013-11-03 10:17:00,
2013-11-03 04:22:00,32.4,17.6,30.16,North,10,2.7,2.7,54,0.00,,---,0.00,VWS V13.01,2013-11-03 10:22:00,
2013-11-03 04:26:00,32.4,17.1,30.16,North,10,0.0,0.0,53,0.00,,---,0.00,VWS V13.01,2013-11-03 10:26:00,
2013-11-03 04:32:00,32.2,17.0,30.19,North,10,0.0,0.0,53,0.00,,---,0.00,VWS V13.01,2013-11-03 10:32:00,
2013-11-03 04:37:00,32.0,16.8,30.19,North,10,0.0,0.0,53,0.00,,---,0.00,VWS V13.01,2013-11-03 10:37:00,
2013-11-03 04:42:00,32.2,17.0,30.19,North,10,0.0,0.0,53,0.00,,---,0.00,VWS V13.01,2013-11-03 10:42:00,
2013-11-03 04:47:00,32.2,17.0,30.19,North,10,0.0,0.0,53,0.00,,---,0.00,VWS V13.01,2013-11-03 10:47:00,
2013-11-03 04:52:00,32.2,16.5,30.19,North,10,0.0,0.0,52,0.00,,---,0.00,VWS V13.01,2013-11-03 10:52:00,
2013-11-03 04:57:00,32.0,16.4,30.19,North,10,0.0,0.0,52,0.00,,---,0.00,VWS V13.01,2013-11-03 10:57:00,
2013-11-03 05:02:00,31.6,16.0,30.16,North,10,0.0,0.0,52,0.00,,---,0.00,VWS V13.01,2013-11-03 11:02:00,
2013-11-03 05:07:00,31.5,15.9,30.16,North,10,0.0,0.0,52,0.00,,---,0.00,VWS V13.01,2013-11-03 11:07:00,
2013-11-03 05:12:00,31.3,15.7,30.16,North,10,0.0,0.0,52,0.00,,---,0.00,VWS V13.01,2013-11-03 11:12:00,
2013-11-03 05:17:00,31.3,15.7,30.16,North,10,0.0,0.0,52,0.00,,---,0.00,VWS V13.01,2013-11-03 11:17:00,
2013-11-03 05:23:00,30.9,15.4,30.16,North,10,0.0,0.0,52,0.00,,---,0.00,VWS V13.01,2013-11-03 11:23:00,
2013-11-03 05:28:00,30.9,15.4,30.16,North,10,0.0,0.0,52,0.00,,---,0.00,VWS V13.01,2013-11-03 11:28:00,
2013-11-03 05:32:00,31.1,16.0,30.16,North,10,0.0,0.0,53,0.00,,---,0.00,VWS V13.01,2013-11-03 11:32:00,
2013-11-03 05:38:00,31.1,16.0,30.16,North,10,0.0,0.0,53,0.00,,---,0.00,VWS V13.01,2013-11-03 11:38:00,
2013-11-03 05:43:00,30.9,15.8,30.19,North,10,0.0,0.0,53,0.00,,---,0.00,VWS V13.01,2013-11-03 11:43:00,
2013-11-03 05:48:00,30.9,15.8,30.19,North,10,0.0,0.0,53,0.00,,---,0.00,VWS V13.01,2013-11-03 11:48:00,
2013-11-03 05:53:00,30.7,15.6,30.19,North,10,0.0,0.0,53,0.00,,---,0.00,VWS V13.01,2013-11-03 11:53:00,
2013-11-03 05:58:00,30.4,15.3,30.19,North,10,0.0,0.0,53,0.00,,---,0.00,VWS V13.01,2013-11-03 11:58:00,
2013-11-03 06:03:00,30.0,15.4,30.19,North,10,0.0,0.0,54,0.00,,---,0.00,VWS V13.01,2013-11-03 12:03:00,
2013-11-03 06:08:00,29.8,15.2,30.19,North,10,0.0,0.0,54,0.00,,---,0.00,VWS V13.01,2013-11-03 12:08:00,
2013-11-03 06:13:00,29.7,15.1,30.16,North,10,0.0,0.0,54,0.00,,---,0.00,VWS V13.01,2013-11-03 12:13:00,
2013-11-03 06:18:00,29.7,15.1,30.16,North,10,0.0,0.0,54,0.00,,---,0.00,VWS V13.01,2013-11-03 12:18:00,
2013-11-03 06:23:00,29.7,15.5,30.16,North,10,0.0,0.0,55,0.00,,---,0.00,VWS V13.01,2013-11-03 12:23:00,
2013-11-03 06:28:00,29.5,15.3,30.19,North,10,0.0,0.0,55,0.00,,---,0.00,VWS V13.01,2013-11-03 12:28:00,
2013-11-03 06:34:00,29.5,15.3,30.19,North,10,0.0,0.0,55,0.00,,---,0.00,VWS V13.01,2013-11-03 12:34:00,
2013-11-03 06:39:00,29.5,15.7,30.19,North,10,0.0,0.0,56,0.00,,---,0.00,VWS V13.01,2013-11-03 12:39:00,
2013-11-03 06:44:00,29.7,15.9,30.19,North,10,0.0,0.0,56,0.00,,---,0.00,VWS V13.01,2013-11-03 12:44:00,
2013-11-03 06:49:00,29.7,15.9,30.19,North,10,0.0,0.0,56,0.00,,---,0.00,VWS V13.01,2013-11-03 12:49:00,
2013-11-03 06:54:00,29.7,15.9,30.19,North,10,0.0,0.0,56,0.00,,---,0.00,VWS V13.01,2013-11-03 12:54:00,
2013-11-03 06:59:00,29.7,16.3,30.19,North,10,0.0,0.0,57,0.00,,---,0.00,VWS V13.01,2013-11-03 12:59:00,
2013-11-03 07:04:00,29.8,16.5,30.19,North,10,0.0,0.0,57,0.00,,---,0.00,VWS V13.01,2013-11-03 13:04:00,
2013-11-03 07:09:00,30.0,16.6,30.19,North,10,0.0,0.0,57,0.00,,---,0.00,VWS V13.01,2013-11-03 13:09:00,
2013-11-03 07:14:00,30.2,17.2,30.19,North,10,0.0,0.0,58,0.00,,---,0.00,VWS V13.01,2013-11-03 13:14:00,
2013-11-03 07:19:00,30.7,17.7,30.19,North,10,0.0,0.0,58,0.00,,---,0.00,VWS V13.01,2013-11-03 13:19:00,
2013-11-03 07:24:00,31.1,18.1,30.19,North,10,0.0,0.0,58,0.00,,---,0.00,VWS V13.01,2013-11-03 13:24:00,
2013-11-03 07:29:00,31.1,18.1,30.19,North,10,0.0,0.0,58,0.00,,---,0.00,VWS V13.01,2013-11-03 13:29:00,
2013-11-03 07:34:00,31.1,18.1,30.19,North,10,0.0,0.0,58,0.00,,---,0.00,VWS V13.01,2013-11-03 13:34:00,
2013-11-03 07:39:00,31.5,18.4,30.19,North,10,0.0,0.0,58,0.00,,---,0.00,VWS V13.01,2013-11-03 13:39:00,
2013-11-03 07:45:00,31.6,19.0,30.19,North,10,0.0,0.0,59,0.00,,---,0.00,VWS V13.01,2013-11-03 13:45:00,
2013-11-03 07:50:00,32.0,19.3,30.19,North,10,0.0,0.0,59,0.00,,---,0.00,VWS V13.01,2013-11-03 13:50:00,
2013-11-03 07:55:00,32.2,19.9,30.19,North,10,0.0,0.0,60,0.00,,---,0.00,VWS V13.01,2013-11-03 13:55:00,
2013-11-03 08:00:00,32.5,20.2,30.19,North,10,0.0,0.0,60,0.00,,---,0.00,VWS V13.01,2013-11-03 14:00:00,
2013-11-03 08:05:00,32.7,20.4,30.19,North,10,0.0,0.0,60,0.00,,---,0.00,VWS V13.01,2013-11-03 14:05:00,
2013-11-03 08:10:00,32.7,20.4,30.19,North,10,3.6,3.6,60,0.00,,---,0.00,VWS V13.01,2013-11-03 14:10:00,
2013-11-03 08:15:00,32.9,20.2,30.19,North,10,3.6,4.0,59,0.00,,---,0.00,VWS V13.01,2013-11-03 14:15:00,
2013-11-03 08:20:00,33.1,20.3,30.19,North,10,3.6,4.0,59,0.00,,---,0.00,VWS V13.01,2013-11-03 14:20:00,
2013-11-03 08:25:00,33.1,20.3,30.19,North,10,3.1,3.6,59,0.00,,---,0.00,VWS V13.01,2013-11-03 14:25:00,
2013-11-03 08:30:00,33.1,20.3,30.19,North,10,3.6,3.6,59,0.00,,---,0.00,VWS V13.01,2013-11-03 14:30:00,
2013-11-03 08:35:00,33.1,19.9,30.19,North,10,3.1,3.6,58,0.00,,---,0.00,VWS V13.01,2013-11-03 14:35:00,
2013-11-03 08:40:00,33.1,19.9,30.19,North,10,3.6,4.0,58,0.00,,---,0.00,VWS V13.01,2013-11-03 14:40:00,
2013-11-03 08:45:00,33.3,20.1,30.19,North,10,3.6,3.6,58,0.00,,---,0.00,VWS V13.01,2013-11-03 14:45:00,
2013-11-03 08:50:00,33.6,20.4,30.19,North,10,3.1,3.1,58,0.00,,---,0.00,VWS V13.01,2013-11-03 14:50:00,
2013-11-03 08:55:00,33.6,20.4,30.19,North,10,3.1,3.1,58,0.00,,---,0.00,VWS V13.01,2013-11-03 14:55:00,
2013-11-03 09:00:00,33.8,20.6,30.19,North,10,2.7,3.6,58,0.00,,---,0.00,VWS V13.01,2013-11-03 15:00:00,
2013-11-03 09:05:00,34.0,20.8,30.19,North,10,4.0,4.0,58,0.00,,---,0.00,VWS V13.01,2013-11-03 15:05:00,
2013-11-03 09:10:00,34.0,20.4,30.19,North,10,2.7,3.1,57,0.00,,---,0.00,VWS V13.01,2013-11-03 15:10:00,
2013-11-03 09:15:00,34.5,21.3,30.19,North,10,3.1,3.6,58,0.00,,---,0.00,VWS V13.01,2013-11-03 15:15:00,
2013-11-03 09:20:00,34.9,21.2,30.19,North,10,0.0,0.0,57,0.00,,---,0.00,VWS V13.01,2013-11-03 15:20:00,
2013-11-03 09:26:00,35.4,21.7,30.19,SSE,160,4.0,4.7,57,0.00,,---,0.00,VWS V13.01,2013-11-03 15:26:00,
2013-11-03 09:31:00,35.8,21.6,30.19,South,177,4.5,4.5,56,0.00,,---,0.00,VWS V13.01,2013-11-03 15:31:00,
2013-11-03 09:36:00,36.1,21.5,30.19,SW,214,0.0,3.6,55,0.00,,---,0.00,VWS V13.01,2013-11-03 15:36:00,
2013-11-03 09:41:00,36.5,21.5,30.19,SSW,213,3.6,3.6,54,0.00,,---,0.00,VWS V13.01,2013-11-03 15:41:00,
2013-11-03 09:46:00,36.7,21.2,30.19,SSE,156,6.5,6.5,53,0.00,,---,0.00,VWS V13.01,2013-11-03 15:46:00,
2013-11-03 09:51:00,36.9,20.9,30.19,South,181,0.0,0.0,52,0.00,,---,0.00,VWS V13.01,2013-11-03 15:51:00,
2013-11-03 09:56:00,37.4,21.4,30.19,South,176,3.1,3.1,52,0.00,,---,0.00,VWS V13.01,2013-11-03 15:56:00,
2013-11-03 10:01:00,37.6,21.1,30.19,SSE,159,5.1,5.6,51,0.00,,---,0.00,VWS V13.01,2013-11-03 16:01:00,
2013-11-03 10:06:00,37.9,21.4,30.19,SSE,151,4.7,4.7,51,0.00,,---,0.00,VWS V13.01,2013-11-03 16:06:00,
2013-11-03 10:11:00,38.1,21.1,30.19,SSW,211,4.0,4.7,50,0.00,,---,0.00,VWS V13.01,2013-11-03 16:11:00,
2013-11-03 10:16:00,38.5,21.5,30.19,SSE,148,4.5,4.5,50,0.00,,---,0.00,VWS V13.01,2013-11-03 16:16:00,
2013-11-03 10:22:00,38.8,21.8,30.19,SW,229,2.7,4.0,50,0.00,,---,0.00,VWS V13.01,2013-11-03 16:22:00,
2013-11-03 10:27:00,39.2,22.1,30.19,SSE,166,3.6,3.6,50,0.00,,---,0.00,VWS V13.01,2013-11-03 16:27:00,
2013-11-03 10:32:00,39.7,22.2,30.19,SSE,156,4.7,4.7,49,0.00,,---,0.00,VWS V13.01,2013-11-03 16:32:00,
2013-11-03 10:37:00,40.3,22.7,30.19,SSW,213,2.7,4.7,49,0.00,,---,0.00,VWS V13.01,2013-11-03 16:37:00,
2013-11-03 10:42:00,40.6,22.0,30.19,SW,233,4.7,5.1,47,0.00,,---,0.00,VWS V13.01,2013-11-03 16:42:00,
2013-11-03 10:47:00,41.2,22.0,30.19,South,174,4.7,5.1,46,0.00,,---,0.00,VWS V13.01,2013-11-03 16:47:00,
2013-11-03 10:52:00,41.7,20.9,30.19,ESE,123,4.0,5.6,43,0.00,,---,0.00,VWS V13.01,2013-11-03 16:52:00,
2013-11-03 10:57:00,42.3,20.8,30.19,South,184,4.5,5.1,42,0.00,,---,0.00,VWS V13.01,2013-11-03 16:57:00,
2013-11-03 11:02:00,42.4,20.4,30.19,SSE,162,4.7,4.7,41,0.00,,---,0.00,VWS V13.01,2013-11-03 17:02:00,
2013-11-03 11:07:00,42.6,20.0,30.19,South,172,5.6,5.6,40,0.00,,---,0.00,VWS V13.01,2013-11-03 17:07:00,
2013-11-03 11:12:00,42.8,20.2,30.16,SE,132,6.5,6.5,40,0.00,,---,0.00,VWS V13.01,2013-11-03 17:12:00,
2013-11-03 11:17:00,43.0,20.3,30.16,SE,139,5.6,6.5,40,0.00,,---,0.00,VWS V13.01,2013-11-03 17:17:00,
2013-11-03 11:23:00,43.3,20.1,30.16,SSE,163,3.6,4.5,39,0.00,,---,0.00,VWS V13.01,2013-11-03 17:23:00,
2013-11-03 11:28:00,43.7,20.4,30.16,SSE,159,5.1,5.1,39,0.00,,---,0.00,VWS V13.01,2013-11-03 17:28:00,
2013-11-03 11:33:00,43.9,20.5,30.16,SSE,156,6.0,6.0,39,0.00,,---,0.00,VWS V13.01,2013-11-03 17:33:00,
2013-11-03 11:38:00,44.1,20.7,30.16,South,186,4.0,4.5,39,0.00,,---,0.00,VWS V13.01,2013-11-03 17:38:00,
2013-11-03 11:43:00,44.1,20.7,30.16,South,179,4.5,5.6,39,0.00,,---,0.00,VWS V13.01,2013-11-03 17:43:00,
2013-11-03 11:48:00,44.1,20.1,30.16,South,169,6.5,7.8,38,0.00,,---,0.00,VWS V13.01,2013-11-03 17:48:00,
2013-11-03 11:53:00,43.9,19.9,30.16,ESE,121,3.1,3.1,38,0.00,,---,0.00,VWS V13.01,2013-11-03 17:53:00,
2013-11-03 11:58:00,43.7,19.8,30.16,SE,134,6.5,6.5,38,0.00,,---,0.00,VWS V13.01,2013-11-03 17:58:00,
2013-11-03 12:03:00,43.7,19.8,30.16,ESE,102,4.7,5.6,38,0.00,,---,0.00,VWS V13.01,2013-11-03 18:03:00,
2013-11-03 12:08:00,43.7,19.8,30.16,SSE,163,6.0,6.0,38,0.00,,---,0.00,VWS V13.01,2013-11-03 18:08:00,
2013-11-03 12:13:00,43.7,19.8,30.16,SSE,154,7.4,7.4,38,0.00,,---,0.00,VWS V13.01,2013-11-03 18:13:00,
2013-11-03 12:18:00,44.1,20.1,30.16,South,185,5.1,5.1,38,0.00,,---,0.00,VWS V13.01,2013-11-03 18:18:00,
2013-11-03 12:23:00,44.2,20.3,30.16,South,169,6.5,6.5,38,0.00,,---,0.00,VWS V13.01,2013-11-03 18:23:00,
2013-11-03 12:29:00,44.8,20.1,30.13,South,175,4.0,4.7,37,0.00,,---,0.00,VWS V13.01,2013-11-03 18:29:00,
2013-11-03 12:34:00,45.5,20.8,30.13,SE,140,4.5,4.7,37,0.00,,---,0.00,VWS V13.01,2013-11-03 18:34:00,
2013-11-03 12:39:00,46.2,21.4,30.13,South,169,4.7,4.7,37,0.00,,---,0.00,VWS V13.01,2013-11-03 18:39:00,
2013-11-03 12:44:00,46.6,21.1,30.13,SE,139,6.0,7.4,36,0.00,,---,0.00,VWS V13.01,2013-11-03 18:44:00,
2013-11-03 12:49:00,46.8,20.6,30.13,SE,145,4.0,4.7,35,0.00,,---,0.00,VWS V13.01,2013-11-03 18:49:00,
2013-11-03 12:54:00,47.1,20.9,30.13,SSE,160,5.1,5.1,35,0.00,,---,0.00,VWS V13.01,2013-11-03 18:54:00,
2013-11-03 12:59:00,47.5,20.5,30.13,South,184,6.5,6.5,34,0.00,,---,0.00,VWS V13.01,2013-11-03 18:59:00,
2013-11-03 13:04:00,47.7,20.7,30.13,South,182,3.1,5.1,34,0.00,,---,0.00,VWS V13.01,2013-11-03 19:04:00,
2013-11-03 13:09:00,47.8,20.9,30.13,SSE,155,4.0,4.7,34,0.00,,---,0.00,VWS V13.01,2013-11-03 19:09:00,
2013-11-03 13:14:00,48.0,21.0,30.13,SSW,195,4.7,6.5,34,0.00,,---,0.00,VWS V13.01,2013-11-03 19:14:00,
2013-11-03 13:19:00,48.6,20.1,30.13,SSE,155,7.4,7.8,32,0.00,,---,0.00,VWS V13.01,2013-11-03 19:19:00,
2013-11-03 13:25:00,48.7,20.2,30.13,South,170,6.0,6.5,32,0.00,,---,0.00,VWS V13.01,2013-11-03 19:25:00,
2013-11-03 13:30:00,48.7,20.2,30.13,SSW,196,4.5,6.0,32,0.00,,---,0.00,VWS V13.01,2013-11-03 19:30:00,
2013-11-03 13:35:00,48.7,20.2,30.13,South,187,6.0,6.0,32,0.00,,---,0.00,VWS V13.01,2013-11-03 19:35:00,
2013-11-03 13:40:00,48.7,20.2,30.13,SSE,164,5.1,7.4,32,0.00,,---,0.00,VWS V13.01,2013-11-03 19:40:00,
2013-11-03 13:45:00,48.7,20.2,30.10,SSE,156,6.9,7.4,32,0.00,,---,0.00,VWS V13.01,2013-11-03 19:45:00,
2013-11-03 13:50:00,48.7,20.2,30.10,ESE,103,4.7,5.6,32,0.00,,---,0.00,VWS V13.01,2013-11-03 19:50:00,
2013-11-03 13:55:00,48.7,20.2,30.10,SSE,152,4.7,5.6,32,0.00,,---,0.00,VWS V13.01,2013-11-03 19:55:00,
2013-11-03 14:00:00,49.1,19.8,30.10,SSE,160,7.8,7.8,31,0.00,,---,0.00,VWS V13.01,2013-11-03 20:00:00,
2013-11-03 14:05:00,49.3,20.7,30.10,South,185,6.0,6.0,32,0.00,,---,0.00,VWS V13.01,2013-11-03 20:05:00,
2013-11-03 14:10:00,49.3,19.9,30.10,South,169,5.6,5.6,31,0.00,,---,0.00,VWS V13.01,2013-11-03 20:10:00,
2013-11-03 14:15:00,48.9,19.6,30.10,SSE,159,3.6,4.5,31,0.00,,---,0.00,VWS V13.01,2013-11-03 20:15:00,
2013-11-03 14:20:00,48.4,19.9,30.10,ESE,102,4.5,4.7,32,0.00,,---,0.00,VWS V13.01,2013-11-03 20:20:00,
2013-11-03 14:26:00,48.0,19.6,30.10,SSE,163,8.7,8.7,32,0.00,,---,0.00,VWS V13.01,2013-11-03 20:26:00,
2013-11-03 14:31:00,48.0,19.6,30.10,SSE,155,4.5,5.1,32,0.00,,---,0.00,VWS V13.01,2013-11-03 20:31:00,
2013-11-03 14:36:00,48.2,19.0,30.10,SSE,163,7.8,7.8,31,0.00,,---,0.00,VWS V13.01,2013-11-03 20:36:00,
2013-11-03 14:41:00,48.2,19.7,30.10,ESE,119,3.1,6.5,32,0.00,,---,0.00,VWS V13.01,2013-11-03 20:41:00,
2013-11-03 14:46:00,48.0,18.8,30.10,SSE,153,6.5,8.3,31,0.00,,---,0.00,VWS V13.01,2013-11-03 20:46:00,
2013-11-03 14:51:00,47.5,19.1,30.10,SE,137,4.7,4.7,32,0.00,,---,0.00,VWS V13.01,2013-11-03 20:51:00,
2013-11-03 14:56:00,47.1,19.5,30.10,SE,144,3.6,5.1,33,0.00,,---,0.00,VWS V13.01,2013-11-03 20:56:00,
2013-11-03 15:01:00,46.8,19.2,30.07,SSE,156,4.7,7.8,33,0.00,,---,0.00,VWS V13.01,2013-11-03 21:01:00,
2013-11-03 15:06:00,46.4,18.9,30.07,ESE,119,5.6,6.5,33,0.00,,---,0.00,VWS V13.01,2013-11-03 21:06:00,
2013-11-03 15:11:00,46.4,19.6,30.07,SSE,156,6.0,6.0,34,0.00,,---,0.00,VWS V13.01,2013-11-03 21:11:00,
2013-11-03 15:16:00,46.2,19.4,30.07,SSE,163,6.0,6.9,34,0.00,,---,0.00,VWS V13.01,2013-11-03 21:16:00,
2013-11-03 15:21:00,46.2,19.4,30.07,SSE,154,4.7,4.7,34,0.00,,---,0.00,VWS V13.01,2013-11-03 21:21:00,
2013-11-03 15:26:00,46.0,19.3,30.07,SSE,159,6.0,6.0,34,0.00,,---,0.00,VWS V13.01,2013-11-03 21:26:00,
2013-11-03 15:32:00,45.9,19.1,30.07,SE,130,5.1,5.1,34,0.00,,---,0.00,VWS V13.01,2013-11-03 21:32:00,
2013-11-03 15:37:00,45.9,19.8,30.07,SSE,162,4.0,4.5,35,0.00,,---,0.00,VWS V13.01,2013-11-03 21:37:00,
2013-11-03 15:42:00,45.7,19.6,30.07,ESE,118,3.6,4.7,35,0.00,,---,0.00,VWS V13.01,2013-11-03 21:42:00,
2013-11-03 15:47:00,45.5,20.1,30.07,South,179,3.1,4.5,36,0.00,,---,0.00,VWS V13.01,2013-11-03 21:47:00,
2013-11-03 15:52:00,45.3,20.0,30.07,ESE,120,3.6,4.7,36,0.00,,---,0.00,VWS V13.01,2013-11-03 21:52:00,
2013-11-03 15:57:00,45.3,20.0,30.07,ESE,106,4.5,4.5,36,0.00,,---,0.00,VWS V13.01,2013-11-03 21:57:00,
2013-11-03 16:02:00,45.3,20.0,30.07,ESE,102,4.0,4.5,36,0.00,,---,0.00,VWS V13.01,2013-11-03 22:02:00,
2013-11-03 16:07:00,45.1,20.4,30.07,SSE,157,4.5,5.1,37,0.00,,---,0.00,VWS V13.01,2013-11-03 22:07:00,
2013-11-03 16:12:00,44.8,20.1,30.07,SE,131,6.0,6.9,37,0.00,,---,0.00,VWS V13.01,2013-11-03 22:12:00,
2013-11-03 16:17:00,44.8,19.5,30.07,ESE,122,4.5,6.5,36,0.00,,---,0.00,VWS V13.01,2013-11-03 22:17:00,
2013-11-03 16:22:00,44.6,20.0,30.07,SSW,197,4.0,4.5,37,0.00,,---,0.00,VWS V13.01,2013-11-03 22:22:00,
2013-11-03 16:27:00,44.4,20.4,30.07,SSE,152,3.6,6.5,38,0.00,,---,0.00,VWS V13.01,2013-11-03 22:27:00,
2013-11-03 16:32:00,44.2,19.6,30.07,SSE,153,6.0,8.7,37,0.00,,---,0.00,VWS V13.01,2013-11-03 22:32:00,
2013-11-03 16:37:00,44.2,19.0,30.07,South,171,8.7,8.7,36,0.00,,---,0.00,VWS V13.01,2013-11-03 22:37:00,
2013-11-03 16:43:00,44.2,19.6,30.07,ESE,105,5.1,8.7,37,0.00,,---,0.00,VWS V13.01,2013-11-03 22:43:00,
2013-11-03 16:48:00,44.1,18.8,30.07,South,170,3.6,5.6,36,0.00,,---,0.00,VWS V13.01,2013-11-03 22:48:00,
2013-11-03 16:53:00,43.9,18.7,30.07,SSE,153,3.6,4.5,36,0.00,,---,0.00,VWS V13.01,2013-11-03 22:53:00,
2013-11-03 16:58:00,43.7,19.8,30.07,SE,138,4.0,6.5,38,0.00,,---,0.00,VWS V13.01,2013-11-03 22:58:00,
2013-11-03 17:03:00,43.5,19.0,30.07,SSE,160,4.0,4.7,37,0.00,,---,0.00,VWS V13.01,2013-11-03 23:03:00,
2013-11-03 17:08:00,43.5,19.0,30.07,ESE,118,3.6,5.6,37,0.00,,---,0.00,VWS V13.01,2013-11-03 23:08:00,
2013-11-03 17:13:00,43.3,18.8,30.07,South,170,4.5,6.9,37,0.00,,---,0.00,VWS V13.01,2013-11-03 23:13:00,
2013-11-03 17:18:00,43.3,18.8,30.07,SSE,164,3.6,4.7,37,0.00,,---,0.00,VWS V13.01,2013-11-03 23:18:00,
2013-11-03 17:23:00,43.3,18.8,30.07,SE,141,5.6,6.5,37,0.00,,---,0.00,VWS V13.01,2013-11-03 23:23:00,
2013-11-03 17:28:00,43.3,18.2,30.07,SE,139,5.6,5.6,36,0.00,,---,0.00,VWS V13.01,2013-11-03 23:28:00,
2013-11-03 17:33:00,43.3,18.2,30.07,SSE,155,5.1,6.5,36,0.00,,---,0.00,VWS V13.01,2013-11-03 23:33:00,
2013-11-03 17:38:00,43.2,18.0,30.07,SE,135,6.0,6.0,36,0.00,,---,0.00,VWS V13.01,2013-11-03 23:38:00,
2013-11-03 17:44:00,43.0,17.9,30.07,East,90,4.5,5.6,36,0.00,,---,0.00,VWS V13.01,2013-11-03 23:44:00,
2013-11-03 17:49:00,42.8,18.4,30.07,SSE,158,4.0,4.5,37,0.00,,---,0.00,VWS V13.01,2013-11-03 23:49:00,
2013-11-03 17:54:00,42.6,18.2,30.07,ESE,123,4.5,5.6,37,0.00,,---,0.00,VWS V13.01,2013-11-03 23:54:00,
2013-11-03 17:59:00,42.6,18.8,30.04,SE,136,4.7,4.7,38,0.00,,---,0.00,VWS V13.01,2013-11-03 23:59:00,
2013-11-03 18:04:00,42.6,18.8,30.04,SSE,161,5.6,5.6,38,0.00,,---,0.00,VWS V13.01,2013-11-04 00:04:00,
2013-11-03 18:10:00,42.4,18.6,30.04,SSE,163,7.4,7.4,38,0.00,,---,0.00,VWS V13.01,2013-11-04 00:10:00,
2013-11-03 18:15:00,42.4,18.6,30.04,SSE,154,4.7,7.4,38,0.00,,---,0.00,VWS V13.01,2013-11-04 00:15:00,
2013-11-03 18:20:00,42.3,18.5,30.04,SE,141,3.1,4.7,38,0.00,,---,0.00,VWS V13.01,2013-11-04 00:20:00,
2013-11-03 18:25:00,42.4,18.6,30.04,SSE,156,5.1,5.1,38,0.00,,---,0.00,VWS V13.01,2013-11-04 00:25:00,
2013-11-03 18:30:00,42.3,18.5,30.04,SE,135,4.0,4.5,38,0.00,,---,0.00,VWS V13.01,2013-11-04 00:30:00,
2013-11-03 18:35:00,42.1,18.9,30.04,SE,141,5.6,5.6,39,0.00,,---,0.00,VWS V13.01,2013-11-04 00:35:00,
2013-11-03 18:40:00,42.1,18.9,30.04,SSE,161,6.5,6.5,39,0.00,,---,0.00,VWS V13.01,2013-11-04 00:40:00,
2013-11-03 18:45:00,42.1,18.9,30.04,SSE,155,5.6,6.0,39,0.00,,---,0.00,VWS V13.01,2013-11-04 00:45:00,
2013-11-03 18:50:00,42.1,18.9,30.04,SE,138,5.6,6.9,39,0.00,,---,0.00,VWS V13.01,2013-11-04 00:50:00,
2013-11-03 18:56:00,41.9,18.8,30.04,SSE,158,6.0,6.0,39,0.00,,---,0.00,VWS V13.01,2013-11-04 00:56:00,
2013-11-03 19:01:00,41.9,18.8,30.04,SSE,154,4.7,5.6,39,0.00,,---,0.00,VWS V13.01,2013-11-04 01:01:00,
2013-11-03 19:06:00,41.9,18.8,30.04,SSE,165,6.5,6.5,39,0.00,,---,0.00,VWS V13.01,2013-11-04 01:06:00,
2013-11-03 19:11:00,42.1,18.9,30.04,SSE,147,8.7,8.7,39,0.00,,---,0.00,VWS V13.01,2013-11-04 01:11:00,
2013-11-03 19:16:00,42.3,19.1,30.04,SSE,163,5.1,5.1,39,0.00,,---,0.00,VWS V13.01,2013-11-04 01:16:00,
2013-11-03 19:21:00,42.3,19.1,30.04,SE,141,6.0,8.3,39,0.00,,---,0.00,VWS V13.01,2013-11-04 01:21:00,
2013-11-03 19:26:00,42.3,19.1,30.04,South,169,5.6,6.5,39,0.00,,---,0.00,VWS V13.01,2013-11-04 01:26:00,
2013-11-03 19:31:00,42.3,19.1,30.04,SSE,149,5.1,6.5,39,0.00,,---,0.00,VWS V13.01,2013-11-04 01:31:00,
2013-11-03 19:36:00,42.4,19.2,30.04,SE,142,3.6,4.7,39,0.00,,---,0.00,VWS V13.01,2013-11-04 01:36:00,
2013-11-03 19:41:00,42.4,19.2,30.04,SSE,164,6.9,6.9,39,0.00,,---,0.00,VWS V13.01,2013-11-04 01:41:00,
2013-11-03 19:46:00,42.4,19.2,30.04,SSE,157,6.5,6.5,39,0.00,,---,0.00,VWS V13.01,2013-11-04 01:46:00,
2013-11-03 19:51:00,42.6,19.4,30.04,SSE,148,6.0,6.0,39,0.00,,---,0.00,VWS V13.01,2013-11-04 01:51:00,
2013-11-03 19:57:00,42.6,19.4,30.04,ESE,112,5.1,5.1,39,0.00,,---,0.00,VWS V13.01,2013-11-04 01:57:00,
2013-11-03 20:02:00,42.6,19.4,30.04,SSE,149,7.4,7.4,39,0.00,,---,0.00,VWS V13.01,2013-11-04 02:02:00,
2013-11-03 20:07:00,42.6,19.4,30.04,South,186,6.0,7.4,39,0.00,,---,0.00,VWS V13.01,2013-11-04 02:07:00,
2013-11-03 20:12:00,42.6,19.4,30.04,SSE,149,6.9,8.3,39,0.00,,---,0.00,VWS V13.01,2013-11-04 02:12:00,
2013-11-03 20:17:00,42.6,19.4,30.04,SSE,149,6.9,6.9,39,0.00,,---,0.00,VWS V13.01,2013-11-04 02:17:00,
2013-11-03 20:22:00,42.6,19.4,30.04,SSE,157,8.3,8.3,39,0.00,,---,0.00,VWS V13.01,2013-11-04 02:22:00,
2013-11-03 20:27:00,42.8,19.0,30.04,SE,124,4.5,6.0,38,0.00,,---,0.00,VWS V13.01,2013-11-04 02:27:00,
2013-11-03 20:32:00,42.6,19.4,30.04,SSE,154,5.1,5.1,39,0.00,,---,0.00,VWS V13.01,2013-11-04 02:32:00,
2013-11-03 20:37:00,42.4,19.2,30.04,SSE,163,6.0,8.3,39,0.00,,---,0.00,VWS V13.01,2013-11-04 02:37:00,
2013-11-03 20:43:00,42.4,19.2,30.04,SSE,164,5.6,5.6,39,0.00,,---,0.00,VWS V13.01,2013-11-04 02:43:00,
2013-11-03 20:48:00,42.4,19.2,30.04,SSE,149,8.7,8.7,39,0.00,,---,0.00,VWS V13.01,2013-11-04 02:48:00,
2013-11-03 20:53:00,42.6,19.4,30.04,ESE,104,3.1,6.0,39,0.00,,---,0.00,VWS V13.01,2013-11-04 02:53:00,
2013-11-03 20:58:00,42.6,19.4,30.04,SE,129,5.6,5.6,39,0.00,,---,0.00,VWS V13.01,2013-11-04 02:58:00,
2013-11-03 21:03:00,42.8,19.0,30.04,SE,138,6.9,6.9,38,0.00,,---,0.00,VWS V13.01,2013-11-04 03:03:00,
2013-11-03 21:08:00,42.6,19.4,30.04,SSE,152,4.0,4.5,39,0.00,,---,0.00,VWS V13.01,2013-11-04 03:08:00,
2013-11-03 21:13:00,42.6,19.4,30.04,SSE,158,5.6,9.4,39,0.00,,---,0.00,VWS V13.01,2013-11-04 03:13:00,
2013-11-03 21:18:00,42.6,19.4,30.04,SSE,148,4.7,4.7,39,0.00,,---,0.00,VWS V13.01,2013-11-04 03:18:00,
2013-11-03 21:23:00,42.6,19.4,30.04,SSE,159,6.5,8.7,39,0.00,,---,0.00,VWS V13.01,2013-11-04 03:23:00,
2013-11-03 21:28:00,42.8,19.0,30.04,SSE,164,6.0,6.9,38,0.00,,---,0.00,VWS V13.01,2013-11-04 03:28:00,
2013-11-03 21:33:00,42.8,19.0,30.04,South,173,6.5,6.5,38,0.00,,---,0.00,VWS V13.01,2013-11-04 03:33:00,
2013-11-03 21:38:00,43.0,19.1,30.04,SSE,158,7.4,7.4,38,0.00,,---,0.00,VWS V13.01,2013-11-04 03:38:00,
2013-11-03 21:43:00,43.0,19.1,30.04,SE,136,6.5,6.9,38,0.00,,---,0.00,VWS V13.01,2013-11-04 03:43:00,
2013-11-03 21:48:00,43.0,19.1,30.04,SSE,155,5.1,9.8,38,0.00,,---,0.00,VWS V13.01,2013-11-04 03:48:00,
2013-11-03 21:54:00,43.0,19.1,30.04,SSE,161,5.6,5.6,38,0.00,,---,0.00,VWS V13.01,2013-11-04 03:54:00,
2013-11-03 21:59:00,43.0,19.1,30.04,SSE,156,4.7,8.7,38,0.00,,---,0.00,VWS V13.01,2013-11-04 03:59:00,
2013-11-03 22:04:00,42.8,19.0,30.04,SSE,164,5.6,5.6,38,0.00,,---,0.00,VWS V13.01,2013-11-04 04:04:00,
2013-11-03 22:09:00,42.8,19.0,30.04,SE,143,6.9,6.9,38,0.00,,---,0.00,VWS V13.01,2013-11-04 04:09:00,
2013-11-03 22:14:00,42.8,19.0,30.04,SSE,160,7.4,7.4,38,0.00,,---,0.00,VWS V13.01,2013-11-04 04:14:00,
2013-11-03 22:19:00,42.8,19.0,30.04,South,175,3.6,3.6,38,0.00,,---,0.00,VWS V13.01,2013-11-04 04:19:00,
2013-11-03 22:24:00,42.8,19.0,30.04,SE,146,4.7,5.1,38,0.00,,---,0.00,VWS V13.01,2013-11-04 04:24:00,
2013-11-03 22:29:00,43.0,19.1,30.04,SE,143,4.0,5.1,38,0.00,,---,0.00,VWS V13.01,2013-11-04 04:29:00,
2013-11-03 22:34:00,43.0,19.1,30.04,South,171,5.6,5.6,38,0.00,,---,0.00,VWS V13.01,2013-11-04 04:34:00,
2013-11-03 22:39:00,43.0,19.7,30.04,SE,133,6.0,8.9,39,0.00,,---,0.00,VWS V13.01,2013-11-04 04:39:00,
2013-11-03 22:44:00,43.0,19.1,30.04,SE,139,4.5,5.1,38,0.00,,---,0.00,VWS V13.01,2013-11-04 04:44:00,
2013-11-03 22:50:00,43.0,19.1,30.04,South,174,4.5,6.0,38,0.00,,---,0.00,VWS V13.01,2013-11-04 04:50:00,
2013-11-03 22:55:00,43.0,19.1,30.04,SE,124,3.6,7.8,38,0.00,,---,0.00,VWS V13.01,2013-11-04 04:55:00,
2013-11-03 23:00:00,43.0,19.1,30.04,SSE,164,6.0,6.9,38,0.00,,---,0.00,VWS V13.01,2013-11-04 05:00:00,
2013-11-03 23:01:00,43.0,19.1,30.04,South,189,5.1,7.4,38,0.00,,---,0.00,VWS V13.01,2013-11-04 05:01:00,
2013-11-03 23:03:00,43.0,19.1,30.04,SSE,164,4.5,4.5,38,0.00,,---,0.00,VWS V13.01,2013-11-04 05:03:00,
2013-11-03 23:08:00,43.0,19.1,30.04,SSE,148,4.5,4.7,38,0.00,,---,0.00,VWS V13.01,2013-11-04 05:08:00,
2013-11-03 23:13:00,43.0,19.1,30.04,South,171,5.6,5.6,38,0.00,,---,0.00,VWS V13.01,2013-11-04 05:13:00,
2013-11-03 23:18:00,43.2,19.3,30.04,SSE,163,6.0,6.0,38,0.00,,---,0.00,VWS V13.01,2013-11-04 05:18:00,
2013-11-03 23:23:00,43.2,19.3,30.04,SSE,157,6.9,6.9,38,0.00,,---,0.00,VWS V13.01,2013-11-04 05:23:00,
2013-11-03 23:28:00,43.3,19.5,30.04,SE,145,5.6,5.6,38,0.00,,---,0.00,VWS V13.01,2013-11-04 05:28:00,
2013-11-03 23:33:00,43.3,19.5,30.04,SSW,203,4.5,6.5,38,0.00,,---,0.00,VWS V13.01,2013-11-04 05:33:00,
2013-11-03 23:39:00,43.3,19.5,30.04,SSE,163,5.6,6.5,38,0.00,,---,0.00,VWS V13.01,2013-11-04 05:39:00,
2013-11-03 23:44:00,43.3,19.5,30.04,SSE,160,6.0,6.9,38,0.00,,---,0.00,VWS V13.01,2013-11-04 05:44:00,
2013-11-03 23:49:00,43.5,19.6,30.04,SSE,167,4.7,4.7,38,0.00,,---,0.00,VWS V13.01,2013-11-04 05:49:00,
2013-11-03 23:54:00,43.5,19.6,30.04,SSE,159,5.6,6.9,38,0.00,,---,0.00,VWS V13.01,2013-11-04 05:54:00,
2013-11-03 23:59:00,43.5,19.6,30.04,SSE,159,6.9,6.9,38,0.00,,---,0.00,VWS V13.01,2013-11-04 05:59:00,